Keith, Illinois
Current Conditions -  °F | °C
As of 5:55 PM on Monday 20 Oct 2014 (Local Time) from KFOA Reporting Station
Clear Clear  
Wind Chill: 67°   Ceiling: Unl
Heat Index: 67°   Visibility: 10mi
Dew Point: 42°   Wind: 9mph
Humidity: 40%   Direction: 310°NW
Pressure: 29.93"   Gusts: NA
Location:  38.5816°N, 88.4678°W
Report Text: KFOA 202255Z AUTO 31008KT 10SM CLR 20/06 A2993 RMK AO2 T01950056
Loading
Personal Weather Stations






























Interactive Weather Map New forecast layout! Learn more

10-Day Weather Forecast

Advertisements
Track Severe Weather on mobile